sensor_id;sensor_type;location;lat;lon;timestamp;P1;durP1;ratioP1;P2;durP2;ratioP2
13985;SDS011;7067;51.832;8.296;2024-02-28T00:01:52;55.63;;;32.37;;
13985;SDS011;7067;51.832;8.296;2024-02-28T00:04:17;52.87;;;31.30;;
13985;SDS011;7067;51.832;8.296;2024-02-28T00:06:44;56.27;;;32.00;;
13985;SDS011;7067;51.832;8.296;2024-02-28T00:09:11;55.67;;;32.97;;
13985;SDS011;7067;51.832;8.296;2024-02-28T00:11:41;56.47;;;33.77;;
13985;SDS011;7067;51.832;8.296;2024-02-28T00:14:07;55.00;;;32.63;;
13985;SDS011;7067;51.832;8.296;2024-02-28T00:16:33;50.67;;;30.53;;
13985;SDS011;7067;51.832;8.296;2024-02-28T00:18:58;49.83;;;31.10;;
13985;SDS011;7067;51.832;8.296;2024-02-28T00:21:24;46.67;;;28.10;;
13985;SDS011;7067;51.832;8.296;2024-02-28T00:23:49;45.53;;;28.63;;
13985;SDS011;7067;51.832;8.296;2024-02-28T00:26:15;47.47;;;28.63;;
13985;SDS011;7067;51.832;8.296;2024-02-28T00:28:40;46.37;;;29.40;;
13985;SDS011;7067;51.832;8.296;2024-02-28T00:31:05;52.07;;;30.57;;
13985;SDS011;7067;51.832;8.296;2024-02-28T00:33:31;53.37;;;31.20;;
13985;SDS011;7067;51.832;8.296;2024-02-28T00:35:56;59.67;;;31.67;;
13985;SDS011;7067;51.832;8.296;2024-02-28T00:38:21;52.17;;;29.20;;
13985;SDS011;7067;51.832;8.296;2024-02-28T00:40:47;54.30;;;29.90;;
13985;SDS011;7067;51.832;8.296;2024-02-28T00:43:12;47.50;;;30.03;;
13985;SDS011;7067;51.832;8.296;2024-02-28T00:45:38;52.07;;;29.70;;
13985;SDS011;7067;51.832;8.296;2024-02-28T00:48:03;51.60;;;29.83;;
13985;SDS011;7067;51.832;8.296;2024-02-28T00:50:29;50.40;;;30.00;;
13985;SDS011;7067;51.832;8.296;2024-02-28T00:52:54;49.93;;;29.87;;
13985;SDS011;7067;51.832;8.296;2024-02-28T00:55:20;47.33;;;27.70;;
13985;SDS011;7067;51.832;8.296;2024-02-28T00:57:45;51.37;;;29.50;;
13985;SDS011;7067;51.832;8.296;2024-02-28T01:00:10;50.67;;;28.33;;
13985;SDS011;7067;51.832;8.296;2024-02-28T01:02:36;47.67;;;29.67;;
13985;SDS011;7067;51.832;8.296;2024-02-28T01:05:01;50.10;;;27.73;;
13985;SDS011;7067;51.832;8.296;2024-02-28T01:07:27;44.90;;;28.27;;
13985;SDS011;7067;51.832;8.296;2024-02-28T01:09:52;46.87;;;27.20;;
13985;SDS011;7067;51.832;8.296;2024-02-28T01:12:18;46.67;;;28.47;;
13985;SDS011;7067;51.832;8.296;2024-02-28T01:14:43;47.20;;;28.97;;
13985;SDS011;7067;51.832;8.296;2024-02-28T01:17:08;44.37;;;26.63;;
13985;SDS011;7067;51.832;8.296;2024-02-28T01:19:34;48.80;;;27.23;;
13985;SDS011;7067;51.832;8.296;2024-02-28T01:22:00;45.00;;;27.60;;
13985;SDS011;7067;51.832;8.296;2024-02-28T01:24:25;43.00;;;26.13;;
13985;SDS011;7067;51.832;8.296;2024-02-28T01:26:50;42.90;;;25.80;;
13985;SDS011;7067;51.832;8.296;2024-02-28T01:29:16;39.53;;;24.43;;
13985;SDS011;7067;51.832;8.296;2024-02-28T01:31:41;43.17;;;26.60;;
13985;SDS011;7067;51.832;8.296;2024-02-28T01:34:06;43.93;;;25.20;;
13985;SDS011;7067;51.832;8.296;2024-02-28T01:36:32;40.60;;;25.43;;
13985;SDS011;7067;51.832;8.296;2024-02-28T01:38:57;44.67;;;26.10;;
13985;SDS011;7067;51.832;8.296;2024-02-28T01:41:23;44.93;;;25.57;;
13985;SDS011;7067;51.832;8.296;2024-02-28T01:43:48;46.77;;;27.00;;
13985;SDS011;7067;51.832;8.296;2024-02-28T01:46:20;48.77;;;29.50;;
13985;SDS011;7067;51.832;8.296;2024-02-28T01:48:46;45.63;;;27.30;;
13985;SDS011;7067;51.832;8.296;2024-02-28T01:51:12;43.57;;;25.33;;
13985;SDS011;7067;51.832;8.296;2024-02-28T01:53:37;44.87;;;26.07;;
13985;SDS011;7067;51.832;8.296;2024-02-28T01:56:03;48.27;;;28.80;;
13985;SDS011;7067;51.832;8.296;2024-02-28T01:58:29;46.77;;;26.20;;
13985;SDS011;7067;51.832;8.296;2024-02-28T02:00:54;46.47;;;25.93;;
13985;SDS011;7067;51.832;8.296;2024-02-28T02:03:20;47.13;;;28.30;;
13985;SDS011;7067;51.832;8.296;2024-02-28T02:05:46;49.70;;;27.27;;
13985;SDS011;7067;51.832;8.296;2024-02-28T02:08:11;45.60;;;27.33;;
13985;SDS011;7067;51.832;8.296;2024-02-28T02:10:36;43.07;;;26.30;;
13985;SDS011;7067;51.832;8.296;2024-02-28T02:13:05;45.20;;;25.77;;
13985;SDS011;7067;51.832;8.296;2024-02-28T02:15:31;46.97;;;26.63;;
13985;SDS011;7067;51.832;8.296;2024-02-28T02:17:56;46.80;;;25.07;;
13985;SDS011;7067;51.832;8.296;2024-02-28T02:20:22;44.60;;;25.73;;
13985;SDS011;7067;51.832;8.296;2024-02-28T02:22:47;45.43;;;26.70;;
13985;SDS011;7067;51.832;8.296;2024-02-28T02:25:13;42.67;;;27.00;;
13985;SDS011;7067;51.832;8.296;2024-02-28T02:27:38;50.20;;;27.07;;
13985;SDS011;7067;51.832;8.296;2024-02-28T02:30:04;44.40;;;26.13;;
13985;SDS011;7067;51.832;8.296;2024-02-28T02:32:30;46.13;;;26.97;;
13985;SDS011;7067;51.832;8.296;2024-02-28T02:34:55;45.33;;;26.90;;
13985;SDS011;7067;51.832;8.296;2024-02-28T02:37:21;47.23;;;26.20;;
13985;SDS011;7067;51.832;8.296;2024-02-28T02:39:46;45.87;;;26.07;;
13985;SDS011;7067;51.832;8.296;2024-02-28T02:42:11;44.73;;;26.17;;
13985;SDS011;7067;51.832;8.296;2024-02-28T02:44:39;48.20;;;26.43;;
13985;SDS011;7067;51.832;8.296;2024-02-28T02:47:05;42.43;;;25.27;;
13985;SDS011;7067;51.832;8.296;2024-02-28T02:49:30;44.90;;;26.23;;
13985;SDS011;7067;51.832;8.296;2024-02-28T02:51:56;47.07;;;27.33;;
13985;SDS011;7067;51.832;8.296;2024-02-28T02:54:21;45.07;;;26.53;;
13985;SDS011;7067;51.832;8.296;2024-02-28T02:56:46;45.90;;;26.57;;
13985;SDS011;7067;51.832;8.296;2024-02-28T02:59:12;56.23;;;29.10;;
13985;SDS011;7067;51.832;8.296;2024-02-28T03:01:37;47.23;;;25.53;;
13985;SDS011;7067;51.832;8.296;2024-02-28T03:04:03;50.07;;;29.10;;
13985;SDS011;7067;51.832;8.296;2024-02-28T03:06:28;49.07;;;28.17;;
13985;SDS011;7067;51.832;8.296;2024-02-28T03:08:54;55.23;;;30.20;;
13985;SDS011;7067;51.832;8.296;2024-02-28T03:11:19;55.97;;;31.63;;
13985;SDS011;7067;51.832;8.296;2024-02-28T03:13:45;60.23;;;32.30;;
13985;SDS011;7067;51.832;8.296;2024-02-28T03:16:10;55.50;;;31.07;;
13985;SDS011;7067;51.832;8.296;2024-02-28T03:18:36;56.67;;;31.13;;
13985;SDS011;7067;51.832;8.296;2024-02-28T03:21:02;67.83;;;30.77;;
13985;SDS011;7067;51.832;8.296;2024-02-28T03:23:28;61.90;;;29.03;;
13985;SDS011;7067;51.832;8.296;2024-02-28T03:25:53;55.67;;;28.90;;
13985;SDS011;7067;51.832;8.296;2024-02-28T03:28:19;83.87;;;29.03;;
13985;SDS011;7067;51.832;8.296;2024-02-28T03:30:44;84.63;;;26.90;;
13985;SDS011;7067;51.832;8.296;2024-02-28T03:33:10;59.07;;;29.37;;
13985;SDS011;7067;51.832;8.296;2024-02-28T03:35:35;55.10;;;25.57;;
13985;SDS011;7067;51.832;8.296;2024-02-28T03:38:00;51.67;;;27.03;;
13985;SDS011;7067;51.832;8.296;2024-02-28T03:40:26;50.23;;;23.33;;
13985;SDS011;7067;51.832;8.296;2024-02-28T03:42:51;49.67;;;21.47;;
13985;SDS011;7067;51.832;8.296;2024-02-28T03:45:16;56.43;;;20.80;;
13985;SDS011;7067;51.832;8.296;2024-02-28T03:47:42;61.47;;;20.90;;
13985;SDS011;7067;51.832;8.296;2024-02-28T03:50:07;41.33;;;19.10;;
13985;SDS011;7067;51.832;8.296;2024-02-28T03:52:33;74.23;;;20.23;;
13985;SDS011;7067;51.832;8.296;2024-02-28T03:54:58;60.00;;;18.33;;
13985;SDS011;7067;51.832;8.296;2024-02-28T03:57:24;72.30;;;18.40;;
13985;SDS011;7067;51.832;8.296;2024-02-28T03:59:49;63.13;;;17.27;;
13985;SDS011;7067;51.832;8.296;2024-02-28T04:02:14;67.37;;;18.73;;
13985;SDS011;7067;51.832;8.296;2024-02-28T04:04:40;54.17;;;18.93;;
13985;SDS011;7067;51.832;8.296;2024-02-28T04:07:05;54.87;;;20.47;;
13985;SDS011;7067;51.832;8.296;2024-02-28T04:09:31;80.83;;;20.87;;
13985;SDS011;7067;51.832;8.296;2024-02-28T04:11:56;51.70;;;21.90;;
13985;SDS011;7067;51.832;8.296;2024-02-28T04:14:21;46.10;;;21.40;;
13985;SDS011;7067;51.832;8.296;2024-02-28T04:16:47;82.10;;;23.23;;
13985;SDS011;7067;51.832;8.296;2024-02-28T04:19:15;42.57;;;22.00;;
13985;SDS011;7067;51.832;8.296;2024-02-28T04:21:40;56.73;;;24.13;;
13985;SDS011;7067;51.832;8.296;2024-02-28T04:24:06;54.37;;;25.50;;
13985;SDS011;7067;51.832;8.296;2024-02-28T04:26:32;68.73;;;26.97;;
13985;SDS011;7067;51.832;8.296;2024-02-28T04:28:57;54.87;;;25.93;;
13985;SDS011;7067;51.832;8.296;2024-02-28T04:31:22;61.87;;;26.90;;
13985;SDS011;7067;51.832;8.296;2024-02-28T04:33:48;59.63;;;28.30;;
13985;SDS011;7067;51.832;8.296;2024-02-28T04:36:13;59.60;;;28.53;;
13985;SDS011;7067;51.832;8.296;2024-02-28T04:38:40;61.33;;;28.63;;
13985;SDS011;7067;51.832;8.296;2024-02-28T04:41:05;73.03;;;28.60;;
13985;SDS011;7067;51.832;8.296;2024-02-28T04:43:30;75.60;;;31.60;;
13985;SDS011;7067;51.832;8.296;2024-02-28T04:45:56;60.53;;;29.87;;
13985;SDS011;7067;51.832;8.296;2024-02-28T04:48:21;73.67;;;29.23;;
13985;SDS011;7067;51.832;8.296;2024-02-28T04:50:46;65.93;;;30.67;;
13985;SDS011;7067;51.832;8.296;2024-02-28T04:53:12;118.57;;;32.17;;
13985;SDS011;7067;51.832;8.296;2024-02-28T04:55:37;67.77;;;31.00;;
13985;SDS011;7067;51.832;8.296;2024-02-28T04:58:02;72.03;;;30.57;;
13985;SDS011;7067;51.832;8.296;2024-02-28T05:00:28;112.93;;;32.73;;
13985;SDS011;7067;51.832;8.296;2024-02-28T05:02:53;80.87;;;30.10;;
13985;SDS011;7067;51.832;8.296;2024-02-28T05:05:19;71.27;;;32.37;;
13985;SDS011;7067;51.832;8.296;2024-02-28T05:07:44;82.33;;;31.77;;
13985;SDS011;7067;51.832;8.296;2024-02-28T05:10:09;68.77;;;32.13;;
13985;SDS011;7067;51.832;8.296;2024-02-28T05:12:35;75.60;;;34.00;;
13985;SDS011;7067;51.832;8.296;2024-02-28T05:15:00;76.57;;;35.80;;
13985;SDS011;7067;51.832;8.296;2024-02-28T05:17:25;73.73;;;33.40;;
13985;SDS011;7067;51.832;8.296;2024-02-28T05:19:52;125.17;;;35.80;;
13985;SDS011;7067;51.832;8.296;2024-02-28T05:22:17;80.37;;;32.33;;
13985;SDS011;7067;51.832;8.296;2024-02-28T05:24:45;76.80;;;35.73;;
13985;SDS011;7067;51.832;8.296;2024-02-28T05:27:11;81.93;;;35.17;;
13985;SDS011;7067;51.832;8.296;2024-02-28T05:29:36;103.57;;;34.67;;
13985;SDS011;7067;51.832;8.296;2024-02-28T05:32:01;89.07;;;36.43;;
13985;SDS011;7067;51.832;8.296;2024-02-28T05:34:27;101.37;;;35.87;;
13985;SDS011;7067;51.832;8.296;2024-02-28T05:36:52;83.50;;;35.47;;
13985;SDS011;7067;51.832;8.296;2024-02-28T05:39:18;93.80;;;36.67;;
13985;SDS011;7067;51.832;8.296;2024-02-28T05:41:43;84.17;;;36.83;;
13985;SDS011;7067;51.832;8.296;2024-02-28T05:44:08;92.80;;;37.40;;
13985;SDS011;7067;51.832;8.296;2024-02-28T05:46:34;110.07;;;38.90;;
13985;SDS011;7067;51.832;8.296;2024-02-28T05:48:59;106.47;;;40.00;;
13985;SDS011;7067;51.832;8.296;2024-02-28T05:51:24;127.13;;;40.90;;
13985;SDS011;7067;51.832;8.296;2024-02-28T05:53:50;114.97;;;40.37;;
13985;SDS011;7067;51.832;8.296;2024-02-28T05:56:16;103.67;;;40.30;;
13985;SDS011;7067;51.832;8.296;2024-02-28T05:58:44;135.93;;;42.70;;
13985;SDS011;7067;51.832;8.296;2024-02-28T06:01:11;234.00;;;43.87;;
13985;SDS011;7067;51.832;8.296;2024-02-28T06:03:37;103.23;;;41.67;;
13985;SDS011;7067;51.832;8.296;2024-02-28T06:06:02;107.77;;;42.73;;
13985;SDS011;7067;51.832;8.296;2024-02-28T06:08:33;103.27;;;41.93;;
13985;SDS011;7067;51.832;8.296;2024-02-28T06:10:59;100.18;;;39.20;;
13985;SDS011;7067;51.832;8.296;2024-02-28T06:13:25;124.97;;;41.07;;
13985;SDS011;7067;51.832;8.296;2024-02-28T06:15:52;103.27;;;41.67;;
13985;SDS011;7067;51.832;8.296;2024-02-28T06:18:17;115.37;;;38.83;;
13985;SDS011;7067;51.832;8.296;2024-02-28T06:20:43;148.07;;;39.80;;
13985;SDS011;7067;51.832;8.296;2024-02-28T06:23:08;130.47;;;36.93;;
13985;SDS011;7067;51.832;8.296;2024-02-28T06:25:33;129.67;;;39.03;;
13985;SDS011;7067;51.832;8.296;2024-02-28T06:27:59;154.87;;;39.50;;
13985;SDS011;7067;51.832;8.296;2024-02-28T06:30:25;143.30;;;39.70;;
13985;SDS011;7067;51.832;8.296;2024-02-28T06:32:50;109.03;;;38.63;;
13985;SDS011;7067;51.832;8.296;2024-02-28T06:35:17;112.47;;;40.73;;
13985;SDS011;7067;51.832;8.296;2024-02-28T06:37:42;131.97;;;39.40;;
13985;SDS011;7067;51.832;8.296;2024-02-28T06:40:14;109.17;;;38.33;;
13985;SDS011;7067;51.832;8.296;2024-02-28T06:42:40;132.10;;;39.37;;
13985;SDS011;7067;51.832;8.296;2024-02-28T06:45:05;234.33;;;43.53;;
13985;SDS011;7067;51.832;8.296;2024-02-28T06:47:32;107.77;;;38.60;;
13985;SDS011;7067;51.832;8.296;2024-02-28T06:49:57;100.47;;;39.10;;
13985;SDS011;7067;51.832;8.296;2024-02-28T06:52:23;102.70;;;38.97;;
13985;SDS011;7067;51.832;8.296;2024-02-28T06:54:48;108.37;;;39.80;;
13985;SDS011;7067;51.832;8.296;2024-02-28T06:57:14;110.87;;;40.27;;
13985;SDS011;7067;51.832;8.296;2024-02-28T06:59:39;106.60;;;40.13;;
13985;SDS011;7067;51.832;8.296;2024-02-28T07:02:04;98.77;;;40.60;;
13985;SDS011;7067;51.832;8.296;2024-02-28T07:04:30;102.20;;;43.13;;
13985;SDS011;7067;51.832;8.296;2024-02-28T07:06:55;104.70;;;41.30;;
13985;SDS011;7067;51.832;8.296;2024-02-28T07:09:21;113.10;;;44.10;;
13985;SDS011;7067;51.832;8.296;2024-02-28T07:11:46;106.17;;;42.03;;
13985;SDS011;7067;51.832;8.296;2024-02-28T07:14:11;126.23;;;40.10;;
13985;SDS011;7067;51.832;8.296;2024-02-28T07:16:37;103.47;;;42.53;;
13985;SDS011;7067;51.832;8.296;2024-02-28T07:19:02;102.20;;;41.03;;
13985;SDS011;7067;51.832;8.296;2024-02-28T07:21:27;113.37;;;43.20;;
13985;SDS011;7067;51.832;8.296;2024-02-28T07:23:53;106.43;;;41.80;;
13985;SDS011;7067;51.832;8.296;2024-02-28T07:26:19;107.80;;;44.53;;
13985;SDS011;7067;51.832;8.296;2024-02-28T07:28:44;116.83;;;43.13;;
13985;SDS011;7067;51.832;8.296;2024-02-28T07:31:18;113.75;;;43.08;;
13985;SDS011;7067;51.832;8.296;2024-02-28T07:33:44;116.45;;;45.65;;
13985;SDS011;7067;51.832;8.296;2024-02-28T07:36:10;109.77;;;44.00;;
13985;SDS011;7067;51.832;8.296;2024-02-28T07:38:35;109.70;;;42.67;;
13985;SDS011;7067;51.832;8.296;2024-02-28T07:41:01;115.03;;;44.63;;
13985;SDS011;7067;51.832;8.296;2024-02-28T07:43:27;114.90;;;41.90;;
13985;SDS011;7067;51.832;8.296;2024-02-28T07:45:52;137.87;;;47.97;;
13985;SDS011;7067;51.832;8.296;2024-02-28T07:48:18;130.47;;;48.87;;
13985;SDS011;7067;51.832;8.296;2024-02-28T07:50:44;126.27;;;50.77;;
13985;SDS011;7067;51.832;8.296;2024-02-28T07:53:10;122.33;;;48.83;;
13985;SDS011;7067;51.832;8.296;2024-02-28T07:55:35;123.13;;;48.90;;
13985;SDS011;7067;51.832;8.296;2024-02-28T07:58:00;128.70;;;50.10;;
13985;SDS011;7067;51.832;8.296;2024-02-28T08:00:26;138.07;;;54.57;;
13985;SDS011;7067;51.832;8.296;2024-02-28T08:02:51;146.97;;;54.07;;
13985;SDS011;7067;51.832;8.296;2024-02-28T08:05:16;138.13;;;54.13;;
13985;SDS011;7067;51.832;8.296;2024-02-28T08:07:43;137.80;;;52.87;;
13985;SDS011;7067;51.832;8.296;2024-02-28T08:10:08;144.93;;;56.13;;
13985;SDS011;7067;51.832;8.296;2024-02-28T08:12:35;136.73;;;55.97;;
13985;SDS011;7067;51.832;8.296;2024-02-28T08:15:01;132.40;;;53.77;;
13985;SDS011;7067;51.832;8.296;2024-02-28T08:17:27;149.73;;;55.57;;
13985;SDS011;7067;51.832;8.296;2024-02-28T08:19:53;138.37;;;55.83;;
13985;SDS011;7067;51.832;8.296;2024-02-28T08:22:19;142.17;;;55.47;;
13985;SDS011;7067;51.832;8.296;2024-02-28T08:24:45;133.90;;;54.47;;
13985;SDS011;7067;51.832;8.296;2024-02-28T08:27:10;143.50;;;58.13;;
13985;SDS011;7067;51.832;8.296;2024-02-28T08:29:35;143.67;;;57.93;;
13985;SDS011;7067;51.832;8.296;2024-02-28T08:32:03;146.40;;;56.23;;
13985;SDS011;7067;51.832;8.296;2024-02-28T08:34:28;144.67;;;57.47;;
13985;SDS011;7067;51.832;8.296;2024-02-28T08:36:54;128.23;;;55.07;;
13985;SDS011;7067;51.832;8.296;2024-02-28T08:39:19;138.00;;;56.20;;
13985;SDS011;7067;51.832;8.296;2024-02-28T08:41:44;129.13;;;54.73;;
13985;SDS011;7067;51.832;8.296;2024-02-28T08:44:10;138.37;;;57.13;;
13985;SDS011;7067;51.832;8.296;2024-02-28T08:46:35;135.83;;;55.83;;
13985;SDS011;7067;51.832;8.296;2024-02-28T08:49:01;139.87;;;56.60;;
13985;SDS011;7067;51.832;8.296;2024-02-28T08:51:26;142.27;;;55.30;;
13985;SDS011;7067;51.832;8.296;2024-02-28T08:53:52;143.90;;;55.87;;
13985;SDS011;7067;51.832;8.296;2024-02-28T08:56:18;140.23;;;56.97;;
13985;SDS011;7067;51.832;8.296;2024-02-28T08:58:44;139.93;;;55.20;;
13985;SDS011;7067;51.832;8.296;2024-02-28T09:01:12;130.63;;;56.23;;
13985;SDS011;7067;51.832;8.296;2024-02-28T09:03:39;134.27;;;53.40;;
13985;SDS011;7067;51.832;8.296;2024-02-28T09:06:04;130.90;;;53.43;;
13985;SDS011;7067;51.832;8.296;2024-02-28T09:08:30;135.20;;;54.57;;
13985;SDS011;7067;51.832;8.296;2024-02-28T09:10:55;123.07;;;54.00;;
13985;SDS011;7067;51.832;8.296;2024-02-28T09:13:20;125.30;;;53.47;;
13985;SDS011;7067;51.832;8.296;2024-02-28T09:15:46;114.70;;;52.97;;
13985;SDS011;7067;51.832;8.296;2024-02-28T09:18:11;125.00;;;54.93;;
13985;SDS011;7067;51.832;8.296;2024-02-28T09:20:37;130.07;;;53.40;;
13985;SDS011;7067;51.832;8.296;2024-02-28T09:23:02;124.60;;;53.50;;
13985;SDS011;7067;51.832;8.296;2024-02-28T09:25:28;133.77;;;54.50;;
13985;SDS011;7067;51.832;8.296;2024-02-28T09:27:53;137.43;;;56.47;;
13985;SDS011;7067;51.832;8.296;2024-02-28T09:30:19;123.47;;;53.63;;
13985;SDS011;7067;51.832;8.296;2024-02-28T09:32:45;123.27;;;50.43;;
13985;SDS011;7067;51.832;8.296;2024-02-28T09:35:12;123.87;;;54.63;;
13985;SDS011;7067;51.832;8.296;2024-02-28T09:37:38;116.17;;;50.80;;
13985;SDS011;7067;51.832;8.296;2024-02-28T09:40:04;118.53;;;51.43;;
13985;SDS011;7067;51.832;8.296;2024-02-28T09:42:30;122.47;;;52.70;;
13985;SDS011;7067;51.832;8.296;2024-02-28T09:44:57;115.27;;;52.40;;
13985;SDS011;7067;51.832;8.296;2024-02-28T09:47:26;122.72;;;55.92;;
13985;SDS011;7067;51.832;8.296;2024-02-28T09:49:52;119.33;;;53.40;;
13985;SDS011;7067;51.832;8.296;2024-02-28T09:52:19;121.07;;;53.20;;
13985;SDS011;7067;51.832;8.296;2024-02-28T09:54:45;126.40;;;54.47;;
13985;SDS011;7067;51.832;8.296;2024-02-28T09:57:11;132.17;;;56.17;;
13985;SDS011;7067;51.832;8.296;2024-02-28T09:59:37;126.00;;;52.57;;
13985;SDS011;7067;51.832;8.296;2024-02-28T10:02:04;130.53;;;55.17;;
13985;SDS011;7067;51.832;8.296;2024-02-28T10:04:32;129.40;;;54.17;;
13985;SDS011;7067;51.832;8.296;2024-02-28T10:06:59;116.07;;;53.47;;
13985;SDS011;7067;51.832;8.296;2024-02-28T10:09:35;119.07;;;52.80;;
13985;SDS011;7067;51.832;8.296;2024-02-28T10:12:02;122.33;;;55.97;;
13985;SDS011;7067;51.832;8.296;2024-02-28T10:14:28;117.60;;;53.87;;
13985;SDS011;7067;51.832;8.296;2024-02-28T10:16:54;119.47;;;55.00;;
13985;SDS011;7067;51.832;8.296;2024-02-28T10:19:20;111.53;;;54.43;;
13985;SDS011;7067;51.832;8.296;2024-02-28T10:21:46;108.13;;;55.83;;
13985;SDS011;7067;51.832;8.296;2024-02-28T10:24:11;121.03;;;55.93;;
13985;SDS011;7067;51.832;8.296;2024-02-28T10:26:41;120.20;;;57.17;;
13985;SDS011;7067;51.832;8.296;2024-02-28T10:29:08;117.38;;;56.08;;
13985;SDS011;7067;51.832;8.296;2024-02-28T10:31:33;106.70;;;53.15;;
13985;SDS011;7067;51.832;8.296;2024-02-28T10:33:59;101.57;;;49.23;;
13985;SDS011;7067;51.832;8.296;2024-02-28T10:36:26;102.37;;;50.87;;
13985;SDS011;7067;51.832;8.296;2024-02-28T10:38:51;96.80;;;48.97;;
13985;SDS011;7067;51.832;8.296;2024-02-28T10:41:17;79.60;;;42.17;;
13985;SDS011;7067;51.832;8.296;2024-02-28T10:43:43;78.28;;;43.17;;
13985;SDS011;7067;51.832;8.296;2024-02-28T10:46:09;78.90;;;41.17;;
13985;SDS011;7067;51.832;8.296;2024-02-28T10:48:34;75.53;;;41.90;;
13985;SDS011;7067;51.832;8.296;2024-02-28T10:51:00;75.35;;;40.92;;
13985;SDS011;7067;51.832;8.296;2024-02-28T10:53:37;84.13;;;44.15;;
13985;SDS011;7067;51.832;8.296;2024-02-28T10:56:06;76.07;;;42.05;;
13985;SDS011;7067;51.832;8.296;2024-02-28T10:58:36;72.63;;;39.07;;
13985;SDS011;7067;51.832;8.296;2024-02-28T11:01:05;76.18;;;39.38;;
13985;SDS011;7067;51.832;8.296;2024-02-28T11:03:31;74.20;;;39.75;;
13985;SDS011;7067;51.832;8.296;2024-02-28T11:05:56;68.68;;;39.58;;
13985;SDS011;7067;51.832;8.296;2024-02-28T11:08:23;66.18;;;38.08;;
13985;SDS011;7067;51.832;8.296;2024-02-28T11:10:59;69.97;;;40.58;;
13985;SDS011;7067;51.832;8.296;2024-02-28T11:13:29;72.80;;;43.63;;
13985;SDS011;7067;51.832;8.296;2024-02-28T11:15:56;70.63;;;41.70;;
13985;SDS011;7067;51.832;8.296;2024-02-28T11:18:32;68.43;;;40.78;;
13985;SDS011;7067;51.832;8.296;2024-02-28T11:20:58;67.00;;;39.95;;
13985;SDS011;7067;51.832;8.296;2024-02-28T11:23:23;67.43;;;40.67;;
13985;SDS011;7067;51.832;8.296;2024-02-28T11:25:49;66.53;;;39.95;;
13985;SDS011;7067;51.832;8.296;2024-02-28T11:28:14;70.03;;;39.65;;
13985;SDS011;7067;51.832;8.296;2024-02-28T11:30:40;63.50;;;37.30;;
13985;SDS011;7067;51.832;8.296;2024-02-28T11:33:06;59.17;;;36.85;;
13985;SDS011;7067;51.832;8.296;2024-02-28T11:35:34;60.25;;;37.47;;
13985;SDS011;7067;51.832;8.296;2024-02-28T11:37:59;61.72;;;36.22;;
13985;SDS011;7067;51.832;8.296;2024-02-28T11:40:25;64.50;;;36.67;;
13985;SDS011;7067;51.832;8.296;2024-02-28T11:42:51;62.92;;;37.08;;
13985;SDS011;7067;51.832;8.296;2024-02-28T11:45:17;65.63;;;38.15;;
13985;SDS011;7067;51.832;8.296;2024-02-28T11:47:43;56.35;;;35.90;;
13985;SDS011;7067;51.832;8.296;2024-02-28T11:50:09;61.80;;;35.28;;
13985;SDS011;7067;51.832;8.296;2024-02-28T11:52:34;54.53;;;34.22;;
13985;SDS011;7067;51.832;8.296;2024-02-28T11:55:00;54.90;;;33.67;;
13985;SDS011;7067;51.832;8.296;2024-02-28T11:57:25;56.70;;;34.25;;
13985;SDS011;7067;51.832;8.296;2024-02-28T11:59:51;56.03;;;33.40;;
13985;SDS011;7067;51.832;8.296;2024-02-28T12:02:17;56.42;;;34.33;;
13985;SDS011;7067;51.832;8.296;2024-02-28T12:04:42;52.50;;;33.83;;
13985;SDS011;7067;51.832;8.296;2024-02-28T12:07:08;55.90;;;33.35;;
13985;SDS011;7067;51.832;8.296;2024-02-28T12:09:34;58.80;;;35.40;;
13985;SDS011;7067;51.832;8.296;2024-02-28T12:12:00;55.95;;;34.42;;
13985;SDS011;7067;51.832;8.296;2024-02-28T12:14:26;61.58;;;36.30;;
13985;SDS011;7067;51.832;8.296;2024-02-28T12:16:52;57.70;;;34.72;;
13985;SDS011;7067;51.832;8.296;2024-02-28T12:19:17;57.67;;;34.17;;
13985;SDS011;7067;51.832;8.296;2024-02-28T12:21:45;57.20;;;34.00;;
13985;SDS011;7067;51.832;8.296;2024-02-28T12:24:10;57.25;;;33.97;;
13985;SDS011;7067;51.832;8.296;2024-02-28T12:26:36;50.65;;;32.38;;
13985;SDS011;7067;51.832;8.296;2024-02-28T12:29:02;55.25;;;32.30;;
13985;SDS011;7067;51.832;8.296;2024-02-28T12:31:28;51.00;;;31.75;;
13985;SDS011;7067;51.832;8.296;2024-02-28T12:33:53;51.03;;;31.75;;
13985;SDS011;7067;51.832;8.296;2024-02-28T12:36:19;56.58;;;32.80;;
13985;SDS011;7067;51.832;8.296;2024-02-28T12:38:45;52.60;;;30.77;;
13985;SDS011;7067;51.832;8.296;2024-02-28T12:41:11;51.83;;;31.92;;
13985;SDS011;7067;51.832;8.296;2024-02-28T12:43:36;48.78;;;29.95;;
13985;SDS011;7067;51.832;8.296;2024-02-28T12:46:02;48.00;;;30.98;;
13985;SDS011;7067;51.832;8.296;2024-02-28T12:48:27;48.60;;;30.80;;
13985;SDS011;7067;51.832;8.296;2024-02-28T12:50:53;50.35;;;30.85;;
13985;SDS011;7067;51.832;8.296;2024-02-28T12:53:18;51.20;;;31.83;;
13985;SDS011;7067;51.832;8.296;2024-02-28T12:55:43;46.45;;;29.92;;
13985;SDS011;7067;51.832;8.296;2024-02-28T12:58:10;50.50;;;30.70;;
13985;SDS011;7067;51.832;8.296;2024-02-28T13:00:35;48.38;;;29.50;;
13985;SDS011;7067;51.832;8.296;2024-02-28T13:03:01;50.35;;;31.25;;
13985;SDS011;7067;51.832;8.296;2024-02-28T13:05:28;50.25;;;31.17;;
13985;SDS011;7067;51.832;8.296;2024-02-28T13:07:53;49.50;;;29.67;;
13985;SDS011;7067;51.832;8.296;2024-02-28T13:10:19;48.88;;;30.30;;
13985;SDS011;7067;51.832;8.296;2024-02-28T13:12:44;44.38;;;28.35;;
13985;SDS011;7067;51.832;8.296;2024-02-28T13:15:09;47.85;;;30.45;;
13985;SDS011;7067;51.832;8.296;2024-02-28T13:17:35;48.05;;;29.25;;
13985;SDS011;7067;51.832;8.296;2024-02-28T13:20:00;49.28;;;31.17;;
13985;SDS011;7067;51.832;8.296;2024-02-28T13:22:26;50.38;;;30.85;;
13985;SDS011;7067;51.832;8.296;2024-02-28T13:24:51;48.17;;;30.08;;
13985;SDS011;7067;51.832;8.296;2024-02-28T13:27:16;47.72;;;30.20;;
13985;SDS011;7067;51.832;8.296;2024-02-28T13:29:42;55.10;;;32.83;;
13985;SDS011;7067;51.832;8.296;2024-02-28T13:32:07;53.63;;;33.20;;
13985;SDS011;7067;51.832;8.296;2024-02-28T13:34:32;52.55;;;30.40;;
13985;SDS011;7067;51.832;8.296;2024-02-28T13:36:58;49.40;;;29.52;;
13985;SDS011;7067;51.832;8.296;2024-02-28T13:39:23;50.45;;;31.15;;
13985;SDS011;7067;51.832;8.296;2024-02-28T13:41:49;52.85;;;31.35;;
13985;SDS011;7067;51.832;8.296;2024-02-28T13:44:16;52.50;;;33.22;;
13985;SDS011;7067;51.832;8.296;2024-02-28T13:46:42;52.95;;;30.85;;
13985;SDS011;7067;51.832;8.296;2024-02-28T13:49:07;47.50;;;29.63;;
13985;SDS011;7067;51.832;8.296;2024-02-28T13:51:33;52.75;;;31.20;;
13985;SDS011;7067;51.832;8.296;2024-02-28T13:53:58;52.60;;;30.95;;
13985;SDS011;7067;51.832;8.296;2024-02-28T13:56:23;53.08;;;32.00;;
13985;SDS011;7067;51.832;8.296;2024-02-28T13:58:49;51.38;;;31.10;;
13985;SDS011;7067;51.832;8.296;2024-02-28T14:01:15;50.95;;;31.98;;
13985;SDS011;7067;51.832;8.296;2024-02-28T14:03:40;53.08;;;31.65;;
13985;SDS011;7067;51.832;8.296;2024-02-28T14:06:05;57.85;;;33.53;;
13985;SDS011;7067;51.832;8.296;2024-02-28T14:08:31;50.72;;;31.17;;
13985;SDS011;7067;51.832;8.296;2024-02-28T14:10:56;56.55;;;32.85;;
13985;SDS011;7067;51.832;8.296;2024-02-28T14:13:23;56.75;;;32.47;;
13985;SDS011;7067;51.832;8.296;2024-02-28T14:15:49;52.38;;;30.70;;
13985;SDS011;7067;51.832;8.296;2024-02-28T14:18:16;49.95;;;30.20;;
13985;SDS011;7067;51.832;8.296;2024-02-28T14:20:42;48.47;;;29.80;;
13985;SDS011;7067;51.832;8.296;2024-02-28T14:23:08;50.95;;;30.75;;